Startpagina
METAR-TAF:

METAR-TAF

Vliegvelden :

Larnaca, Cyprus

Luchthaven Larnaca

breedte: 34-53N, lengte: 033-38E, hoogte: 2 m

Actueel weer

Dit bericht is 8 minuten geleden gemaakt, om 03:00 UTC
Wind 4 kt uit het noordnoordwesten
Temperatuur 23°C
Vochtigheid 83%
Druk 1008 hPa
Zicht 10 km of meer
geen wolken onder 1500 m en geen cumulonimbus

METAR: LCLK 240300Z 33004KT CAVOK 23/20 Q1008 NOSIG

Tijdstip: 06:08 (03:08 UTC)

Verwachting

Dit bericht is 3 uur en het 38 minuten geleden gemaakt, om 23:30 UTC
Verwachting geldig van 24 om 00 UTC tot 24 om 24 UTC
Wind 8 kt uit het noordwesten
Zicht 10 km of meer
Weinig wolken op 3000 ft
Kans 30% :
Tijdelijke
van 24 om 00 UTC tot 24 om 06 UTC
Zicht: 5000 m
Gebroken wolken op 700 ft
nevel
Wijzigt naar
van 24 om 08 UTC tot 24 om 12 UTC
Wind 15 kt uit het zuidzuidwesten
Wijzigt naar
van 24 om 17 UTC tot 24 om 19 UTC
Wind 7 kt uit het noordwesten

TAF: LCLK 232330Z 2400/2424 31008KT 9999 FEW030 PROB30 TEMPO 2400/2406 5000 BR BKN007 BECMG 2408/2412 21015KT BECMG 2417/2419 31007KT

Waarnemingen en weersverwachtingen van meer dan 4000 vliegvelden (METAR en TAF).

De beschikbare stations zijn de gele en rode punten op de kaart.

Ga met uw muis naar het station om de naam te zien.

Klik dan om waarnemingen en weersverwachtingen te zien.

kaart wijzigen: klik op de groene knoppen met een zwart kruis om in te zoomen, op de groene knop met een streepje om uit te zoomen of op de groene pijlen voor aangrenzende kaarten.


METAR-TAF: